Terminal Aerodrome Forecast
Issued by NWS

Home | Current Version | Previous Version | Graphics & Text | Print | Product List | Glossary On
Versions: 1 2 3 4 5 6 7 8 9 10 11 12 13 14 15 16 17
232
FTUS43 KFGF 082320
TAFBJI
TAF
KBJI 082320Z 0900/0924 32017G24KT 5SM BLSN BKN025
     FM090600 32014KT P6SM BKN030
     FM090700 32012KT P6SM SCT050
     FM091200 31010KT P6SM BKN250=

USA.gov is the U.S. government's official web portal to all federal, state and local government web resources and services.